createdAt,value
2022-12-19T00:00:39.747Z,102310.30
2022-12-19T00:03:27.764Z,102306.02
2022-12-19T00:06:14.986Z,102301.07
2022-12-19T00:09:01.252Z,102303.83
2022-12-19T00:11:47.820Z,102302.55
2022-12-19T00:14:34.237Z,102301.71
2022-12-19T00:17:20.971Z,102295.29
2022-12-19T00:20:08.299Z,102291.91
2022-12-19T00:22:55.823Z,102284.59
2022-12-19T00:25:42.107Z,102290.29
2022-12-19T00:28:29.252Z,102290.29
2022-12-19T00:31:16.381Z,102290.75
2022-12-19T00:34:02.921Z,102282.27
2022-12-19T00:36:49.015Z,102277.94
2022-12-19T00:39:35.459Z,102278.73
2022-12-19T00:42:21.919Z,102285.34
2022-12-19T00:45:08.592Z,102280.74
2022-12-19T00:47:54.759Z,102280.12
2022-12-19T00:50:41.125Z,102275.08
2022-12-19T00:53:27.371Z,102266.88
2022-12-19T00:56:15.322Z,102266.23
2022-12-19T00:59:02.578Z,102266.83
2022-12-19T01:01:49.064Z,102267.98
2022-12-19T01:04:39.843Z,102270.54
2022-12-19T01:07:27.981Z,102278.24
2022-12-19T01:10:14.397Z,102274.48
2022-12-19T01:13:00.932Z,102268.40
2022-12-19T01:15:47.411Z,102268.77
2022-12-19T01:18:34.003Z,102267.61
2022-12-19T01:21:20.531Z,102250.41
2022-12-19T01:24:06.867Z,102242.25
2022-12-19T01:26:52.856Z,102234.64
2022-12-19T01:29:51.738Z,102227.45
2022-12-19T01:32:39.717Z,102222.19
2022-12-19T01:35:26.433Z,102222.79
2022-12-19T01:38:19.842Z,102202.41
2022-12-19T01:41:06.399Z,102194.65
2022-12-19T01:44:05.581Z,102198.44
2022-12-19T01:46:57.601Z,102184.79
2022-12-19T01:49:45.324Z,102184.82
2022-12-19T01:52:31.593Z,102181.64
2022-12-19T01:55:18.453Z,102169.59
2022-12-19T01:58:04.992Z,102176.17
2022-12-19T02:00:51.583Z,102175.23
2022-12-19T02:03:38.989Z,102165.28
2022-12-19T02:06:25.611Z,102157.56
2022-12-19T02:09:11.560Z,102159.67
2022-12-19T02:11:58.920Z,102165.09
2022-12-19T02:14:45.428Z,102156.19
2022-12-19T02:17:39.135Z,102146.46
2022-12-19T02:20:30.538Z,102140.15
2022-12-19T02:23:32.101Z,102138.60
2022-12-19T02:26:43.045Z,102141.27
2022-12-19T02:29:49.531Z,102133.76
2022-12-19T02:32:48.312Z,102122.77
2022-12-19T02:35:45.371Z,102126.84
2022-12-19T02:38:51.617Z,102123.38
2022-12-19T02:41:44.152Z,102118.48
2022-12-19T02:44:33.694Z,102122.73
2022-12-19T02:47:21.171Z,102117.89
2022-12-19T02:50:08.223Z,102111.44
2022-12-19T02:52:54.796Z,102104.20
2022-12-19T02:56:01.544Z,102098.23
2022-12-19T02:58:52.261Z,102095.62
2022-12-19T03:01:43.263Z,102088.55
2022-12-19T03:04:45.565Z,102084.27
2022-12-19T03:07:32.183Z,102083.98
2022-12-19T03:10:44.354Z,102083.38
2022-12-19T03:13:54.970Z,102075.13
2022-12-19T03:16:41.086Z,102071.40
2022-12-19T03:19:27.467Z,102058.79
2022-12-19T03:22:13.881Z,102054.75
2022-12-19T03:25:00.502Z,102054.65
2022-12-19T03:27:46.931Z,102052.96
2022-12-19T03:30:33.448Z,102049.34
2022-12-19T03:33:19.752Z,102048.97
2022-12-19T03:36:07.840Z,102048.98
2022-12-19T03:38:54.731Z,102050.70
2022-12-19T03:41:59.986Z,102050.82
2022-12-19T03:44:46.418Z,102048.33
2022-12-19T03:47:37.103Z,102040.15
2022-12-19T03:50:23.687Z,102028.72
2022-12-19T03:53:20.579Z,102032.16
2022-12-19T03:56:16.792Z,102027.17
2022-12-19T03:59:21.503Z,102022.77
2022-12-19T04:02:08.423Z,102016.70
2022-12-19T04:05:01.120Z,102014.66
2022-12-19T04:07:47.696Z,102018.02
2022-12-19T04:10:36.681Z,102009.38
2022-12-19T04:13:33.556Z,102011.08
2022-12-19T04:16:45.867Z,102010.27
2022-12-19T04:19:42.656Z,102006.34
2022-12-19T04:22:34.551Z,102007.36
2022-12-19T04:25:29.174Z,102000.65
2022-12-19T04:28:38.799Z,102005.21
2022-12-19T04:31:25.127Z,101998.05
2022-12-19T04:34:11.859Z,102000.08
2022-12-19T04:36:58.562Z,101997.55
2022-12-19T04:39:45.136Z,101990.11
2022-12-19T04:42:31.377Z,101980.23
2022-12-19T04:45:17.640Z,101977.25
2022-12-19T04:48:04.573Z,101983.75
2022-12-19T04:50:51.389Z,101966.61
2022-12-19T04:53:37.707Z,101970.06
2022-12-19T04:56:24.191Z,101965.30
2022-12-19T04:59:10.611Z,101960.16
2022-12-19T05:01:57.851Z,101947.21
2022-12-19T05:04:45.524Z,101948.60
2022-12-19T05:07:32.058Z,101948.86
2022-12-19T05:10:18.389Z,101948.06
2022-12-19T05:13:04.569Z,101954.42
2022-12-19T05:16:01.223Z,101963.11
2022-12-19T05:18:47.788Z,101962.86
2022-12-19T05:21:34.137Z,101971.65
2022-12-19T05:24:20.758Z,101959.30
2022-12-19T05:27:07.238Z,101956.52
2022-12-19T05:29:53.327Z,101957.48
2022-12-19T05:32:39.965Z,101948.93
2022-12-19T05:35:26.312Z,101955.94
2022-12-19T05:38:12.919Z,101953.20
2022-12-19T05:41:00.302Z,101956.69
2022-12-19T05:43:50.517Z,101954.39
2022-12-19T05:46:36.955Z,101950.77
2022-12-19T05:49:23.562Z,101945.67
2022-12-19T05:52:11.425Z,101940.94
2022-12-19T05:54:57.684Z,101943.09
2022-12-19T05:57:44.461Z,101930.75
2022-12-19T06:00:30.901Z,101914.83
2022-12-19T06:03:17.345Z,101915.00
2022-12-19T06:06:04.550Z,101918.54
2022-12-19T06:08:54.719Z,101920.48
2022-12-19T06:11:40.772Z,101923.14
2022-12-19T06:14:27.128Z,101916.94
2022-12-19T06:17:13.773Z,101919.63
2022-12-19T06:20:00.192Z,101932.17
2022-12-19T06:22:46.417Z,101940.91
2022-12-19T06:25:32.828Z,101939.60
2022-12-19T06:28:20.182Z,101937.73
2022-12-19T06:31:07.376Z,101934.80
2022-12-19T06:33:54.586Z,101937.21
2022-12-19T06:36:41.212Z,101945.13
2022-12-19T06:39:27.989Z,101948.02
2022-12-19T06:42:22.957Z,101954.16
2022-12-19T06:45:09.498Z,101946.79
2022-12-19T06:47:56.217Z,101939.79
2022-12-19T06:50:42.469Z,101933.62
2022-12-19T06:53:28.777Z,101921.80
2022-12-19T06:56:15.749Z,101925.52
2022-12-19T06:59:02.443Z,101932.43
2022-12-19T07:02:19.822Z,101932.02
2022-12-19T07:05:06.684Z,101924.95
2022-12-19T07:07:52.857Z,101917.28
2022-12-19T07:10:39.543Z,101915.04
2022-12-19T07:13:25.718Z,101911.58
2022-12-19T07:16:12.279Z,101913.33
2022-12-19T07:18:58.649Z,101906.92
2022-12-19T07:21:44.937Z,101903.41
2022-12-19T07:24:31.152Z,101902.73
2022-12-19T07:27:17.697Z,101892.95
2022-12-19T07:30:05.023Z,101895.68
2022-12-19T07:32:51.582Z,101892.30
2022-12-19T07:35:37.981Z,101893.17
2022-12-19T07:38:24.489Z,101894.46
2022-12-19T07:41:10.489Z,101889.50
2022-12-19T07:43:56.893Z,101888.17
2022-12-19T07:46:43.206Z,101879.68
2022-12-19T07:49:29.507Z,101882.38
2022-12-19T07:52:15.578Z,101879.15
2022-12-19T07:55:01.784Z,101874.05
2022-12-19T07:57:48.387Z,101875.73
2022-12-19T08:00:35.046Z,101884.81
2022-12-19T08:03:22.007Z,101888.83
2022-12-19T08:06:08.642Z,101888.52
2022-12-19T08:08:55.239Z,101885.05
2022-12-19T08:11:41.884Z,101871.85
2022-12-19T08:14:28.590Z,101869.95
2022-12-19T08:17:22.258Z,101860.45
2022-12-19T08:20:09.628Z,101863.08
2022-12-19T08:22:55.998Z,101861.11
2022-12-19T08:25:42.471Z,101858.04
2022-12-19T08:28:28.911Z,101854.86
2022-12-19T08:31:16.858Z,101851.39
2022-12-19T08:34:03.238Z,101855.05
2022-12-19T08:36:50.215Z,101848.15
2022-12-19T08:39:36.659Z,101847.33
2022-12-19T08:42:23.201Z,101833.34
2022-12-19T08:45:09.636Z,101830.29
2022-12-19T08:47:56.855Z,101834.92
2022-12-19T08:50:53.843Z,101828.34
2022-12-19T08:53:41.183Z,101825.30
2022-12-19T08:56:27.552Z,101833.06
2022-12-19T08:59:24.938Z,101835.91
2022-12-19T09:02:17.459Z,101835.09
2022-12-19T09:06:01.676Z,101827.67
2022-12-19T09:08:10.424Z,101828.11
2022-12-19T09:11:05.104Z,101828.63
2022-12-19T09:13:51.798Z,101822.98
2022-12-19T09:16:38.200Z,101818.56
2022-12-19T09:19:24.721Z,101825.39
2022-12-19T09:22:11.999Z,101820.11
2022-12-19T09:24:58.850Z,101815.67
2022-12-19T09:28:17.958Z,101812.31
2022-12-19T09:30:57.795Z,101812.99
2022-12-19T09:33:44.385Z,101815.06
2022-12-19T09:36:31.179Z,101809.16
2022-12-19T09:39:17.766Z,101802.69
2022-12-19T09:42:21.952Z,101796.95
2022-12-19T09:45:31.311Z,101787.75
2022-12-19T09:48:24.732Z,101782.06
2022-12-19T09:51:18.353Z,101772.10
2022-12-19T09:54:16.635Z,101771.95
2022-12-19T09:57:05.333Z,101763.09
2022-12-19T09:59:55.488Z,101756.97
2022-12-19T10:02:54.379Z,101753.05
2022-12-19T10:06:40.411Z,101749.83
2022-12-19T10:10:12.440Z,101743.55
2022-12-19T10:12:43.926Z,101746.54
2022-12-19T10:15:38.819Z,101742.79
2022-12-19T10:18:33.246Z,101735.23
2022-12-19T10:22:17.843Z,101723.23
2022-12-19T10:25:21.214Z,101712.80
2022-12-19T10:28:37.342Z,101716.06
2022-12-19T10:31:38.613Z,101714.65
2022-12-19T10:34:33.326Z,101714.77
2022-12-19T10:37:40.853Z,101707.19
2022-12-19T10:40:34.698Z,101695.99
2022-12-19T10:43:44.409Z,101690.09
2022-12-19T10:46:46.340Z,101686.80
2022-12-19T10:49:32.746Z,101688.26
2022-12-19T10:53:07.262Z,101683.93
2022-12-19T10:55:55.167Z,101681.61
2022-12-19T10:58:43.254Z,101685.33
2022-12-19T11:01:30.193Z,101669.38
2022-12-19T11:04:33.446Z,101670.89
2022-12-19T11:07:20.857Z,101670.68
2022-12-19T11:11:57.985Z,101658.05
2022-12-19T11:19:46.411Z,101647.95
2022-12-19T11:23:39.141Z,101646.59
2022-12-19T11:29:26.597Z,101637.55
2022-12-19T11:29:40.715Z,101625.93
2022-12-19T11:30:41.453Z,101617.70
2022-12-19T11:33:14.475Z,101614.94
2022-12-19T11:36:01.792Z,101609.42
2022-12-19T11:38:54.296Z,101606.13
2022-12-19T11:41:47.523Z,101606.86
2022-12-19T11:44:37.389Z,101602.89
2022-12-19T11:47:38.648Z,101594.75
2022-12-19T11:50:27.881Z,101592.58
2022-12-19T11:53:23.249Z,101576.36
2022-12-19T11:56:15.796Z,101573.23
2022-12-19T11:59:11.718Z,101569.18
2022-12-19T12:02:19.007Z,101564.44
2022-12-19T12:05:42.747Z,101554.88
2022-12-19T12:12:33.450Z,101565.89
2022-12-19T12:21:30.006Z,101574.96
2022-12-19T12:27:14.842Z,101577.39
2022-12-19T12:31:09.513Z,101578.06
2022-12-19T12:31:17.154Z,101578.23
2022-12-19T12:31:48.343Z,101568.58
2022-12-19T12:32:04.007Z,101576.27
2022-12-19T12:35:48.802Z,101565.81
2022-12-19T12:39:41.347Z,101539.32
2022-12-19T12:42:59.914Z,101535.58
2022-12-19T12:45:48.528Z,101530.97
2022-12-19T12:48:38.583Z,101519.15
2022-12-19T12:51:25.192Z,101523.45
2022-12-19T12:54:12.604Z,101523.10
2022-12-19T12:56:59.204Z,101522.90
2022-12-19T12:59:46.599Z,101515.66
2022-12-19T13:02:33.418Z,101512.36
2022-12-19T13:05:40.951Z,101515.98
2022-12-19T13:08:29.500Z,101514.81
2022-12-19T13:11:54.921Z,101520.69
2022-12-19T13:14:43.204Z,101522.21
2022-12-19T13:17:35.236Z,101519.52
2022-12-19T13:20:25.236Z,101519.59
2022-12-19T13:23:26.443Z,101519.60
2022-12-19T13:26:43.106Z,101522.73
2022-12-19T13:29:31.837Z,101527.56
2022-12-19T13:32:18.244Z,101530.73
2022-12-19T13:35:49.127Z,101526.45
2022-12-19T13:39:51.733Z,101509.16
2022-12-19T13:41:47.243Z,101502.45
2022-12-19T13:44:37.355Z,101509.79
2022-12-19T13:47:24.656Z,101512.67
2022-12-19T13:50:37.483Z,101510.73
2022-12-19T13:53:26.222Z,101506.78
2022-12-19T13:56:14.238Z,101500.86
2022-12-19T13:59:01.555Z,101505.61
2022-12-19T14:01:48.229Z,101507.85
2022-12-19T14:04:34.770Z,101504.48
2022-12-19T14:07:37.466Z,101509.81
2022-12-19T14:11:32.296Z,101512.52
2022-12-19T14:14:12.773Z,101515.02
2022-12-19T14:17:07.995Z,101508.26
2022-12-19T14:20:06.807Z,101503.20
2022-12-19T14:23:01.019Z,101504.35
2022-12-19T14:28:14.470Z,101511.44
2022-12-19T14:30:28.625Z,101513.27
2022-12-19T14:33:46.477Z,101511.05
2022-12-19T14:36:12.362Z,101513.58
2022-12-19T14:39:27.033Z,101515.10
2022-12-19T14:42:11.691Z,101510.30
2022-12-19T14:52:36.162Z,101510.58
2022-12-19T14:54:01.973Z,101509.65
2022-12-19T14:54:37.407Z,101509.58
2022-12-19T14:55:32.444Z,101510.52
2022-12-19T14:58:53.923Z,101498.70
2022-12-19T15:01:09.245Z,101497.77
2022-12-19T15:04:53.435Z,101492.21
2022-12-19T15:07:21.152Z,101483.90
2022-12-19T15:11:04.268Z,101483.15
2022-12-19T15:14:48.563Z,101489.33
2022-12-19T15:16:37.330Z,101490.02
2022-12-19T15:19:23.906Z,101485.80
2022-12-19T15:22:10.492Z,101483.41
2022-12-19T15:24:56.985Z,101479.55
2022-12-19T15:27:44.093Z,101484.25
2022-12-19T15:30:30.457Z,101481.68
2022-12-19T15:33:16.926Z,101479.38
2022-12-19T15:36:03.453Z,101475.31
2022-12-19T15:38:49.766Z,101477.01
2022-12-19T15:41:36.108Z,101469.16
2022-12-19T15:44:36.740Z,101460.61
2022-12-19T15:47:30.133Z,101455.82
2022-12-19T15:50:21.900Z,101450.71
2022-12-19T15:53:34.581Z,101452.44
2022-12-19T15:56:30.555Z,101452.05
2022-12-19T15:59:38.560Z,101439.95
2022-12-19T16:02:27.990Z,101433.44
2022-12-19T16:05:24.498Z,101427.00
2022-12-19T16:08:12.364Z,101428.67
2022-12-19T16:11:01.695Z,101423.02
2022-12-19T16:13:55.703Z,101417.04
2022-12-19T16:16:42.467Z,101417.88
2022-12-19T16:19:30.291Z,101414.33
2022-12-19T16:22:22.440Z,101410.97
2022-12-19T16:25:11.459Z,101410.73
2022-12-19T16:27:58.437Z,101413.61
2022-12-19T16:30:45.119Z,101411.80
2022-12-19T16:33:31.738Z,101415.88
2022-12-19T16:36:18.558Z,101417.65
2022-12-19T16:39:05.395Z,101415.94
2022-12-19T16:41:51.689Z,101418.95
2022-12-19T16:44:37.972Z,101406.61
2022-12-19T16:47:24.760Z,101411.05
2022-12-19T16:50:31.303Z,101416.39
2022-12-19T16:53:17.926Z,101411.61
2022-12-19T16:56:04.767Z,101403.88
2022-12-19T16:58:51.878Z,101407.10
2022-12-19T17:01:38.620Z,101400.48
2022-12-19T17:04:25.079Z,101401.64
2022-12-19T17:07:12.045Z,101403.23
2022-12-19T17:09:58.455Z,101405.50
2022-12-19T17:12:44.931Z,101397.61
2022-12-19T17:15:36.799Z,101401.49
2022-12-19T17:18:34.461Z,101391.34
2022-12-19T17:21:21.736Z,101384.68
2022-12-19T17:24:12.588Z,101381.92
2022-12-19T17:26:58.836Z,101381.61
2022-12-19T17:29:47.167Z,101385.39
2022-12-19T17:32:33.663Z,101382.11
2022-12-19T17:35:27.595Z,101377.47
2022-12-19T17:38:15.752Z,101374.21
2022-12-19T17:41:02.414Z,101369.11
2022-12-19T17:43:48.769Z,101365.79
2022-12-19T17:46:35.247Z,101363.46
2022-12-19T17:49:27.397Z,101364.93
2022-12-19T17:52:18.010Z,101371.98
2022-12-19T17:55:22.102Z,101372.81
2022-12-19T17:58:09.982Z,101368.52
2022-12-19T18:00:56.755Z,101374.23
2022-12-19T18:03:42.941Z,101381.61
2022-12-19T18:06:29.878Z,101385.48
2022-12-19T18:09:20.170Z,101374.96
2022-12-19T18:12:06.916Z,101374.77
2022-12-19T18:14:53.235Z,101370.73
2022-12-19T18:17:39.587Z,101367.38
2022-12-19T18:20:32.608Z,101366.09
2022-12-19T18:23:21.290Z,101364.20
2022-12-19T18:26:07.976Z,101355.26
2022-12-19T18:28:54.789Z,101355.45
2022-12-19T18:31:46.431Z,101351.05
2022-12-19T18:34:36.622Z,101345.84
2022-12-19T18:37:23.080Z,101348.11
2022-12-19T18:40:25.973Z,101352.63
2022-12-19T18:43:16.334Z,101355.02
2022-12-19T18:46:02.477Z,101354.79
2022-12-19T18:48:49.062Z,101345.59
2022-12-19T18:51:38.092Z,101347.19
2022-12-19T18:54:25.345Z,101350.54
2022-12-19T18:57:11.671Z,101343.30
2022-12-19T18:59:58.261Z,101339.14
2022-12-19T19:02:56.165Z,101337.00
2022-12-19T19:05:42.925Z,101329.44
2022-12-19T19:08:31.297Z,101324.61
2022-12-19T19:11:17.486Z,101318.73
2022-12-19T19:14:04.237Z,101320.55
2022-12-19T19:16:52.492Z,101318.67
2022-12-19T19:19:38.647Z,101316.75
2022-12-19T19:22:25.443Z,101324.77
2022-12-19T19:25:11.991Z,101332.08
2022-12-19T19:27:58.525Z,101332.80
2022-12-19T19:30:45.307Z,101325.79
2022-12-19T19:33:35.491Z,101322.58
2022-12-19T19:36:24.239Z,101330.65
2022-12-19T19:39:11.745Z,101336.38
2022-12-19T19:41:58.408Z,101330.00
2022-12-19T19:44:46.497Z,101329.14
2022-12-19T19:47:36.114Z,101323.73
2022-12-19T19:50:25.277Z,101321.05
2022-12-19T19:53:11.566Z,101322.33
2022-12-19T19:56:00.734Z,101319.34
2022-12-19T19:58:46.926Z,101322.63
2022-12-19T20:01:35.059Z,101323.33
2022-12-19T20:04:21.875Z,101319.58
2022-12-19T20:07:08.529Z,101315.31
2022-12-19T20:09:55.268Z,101315.33
2022-12-19T20:12:41.678Z,101321.81
2022-12-19T20:15:28.305Z,101310.14
2022-12-19T20:18:15.003Z,101306.88
2022-12-19T20:21:01.440Z,101299.36
2022-12-19T20:23:47.815Z,101298.32
2022-12-19T20:26:35.353Z,101293.35
2022-12-19T20:29:21.947Z,101294.55
2022-12-19T20:32:08.409Z,101298.99
2022-12-19T20:34:54.821Z,101300.44
2022-12-19T20:37:40.999Z,101297.50
2022-12-19T20:40:27.433Z,101299.09
2022-12-19T20:43:14.369Z,101294.73
2022-12-19T20:46:11.967Z,101302.59
2022-12-19T20:48:58.284Z,101299.38
2022-12-19T20:51:47.221Z,101301.97
2022-12-19T20:54:33.809Z,101305.26
2022-12-19T20:57:20.353Z,101304.54
2022-12-19T21:00:08.829Z,101303.00
2022-12-19T21:03:27.785Z,101298.98
2022-12-19T21:06:02.408Z,101296.94
2022-12-19T21:08:48.732Z,101292.27
2022-12-19T21:11:36.582Z,101288.44
2022-12-19T21:14:23.096Z,101284.23
2022-12-19T21:17:09.597Z,101288.79
2022-12-19T21:19:56.154Z,101279.34
2022-12-19T21:22:42.611Z,101277.41
2022-12-19T21:25:28.974Z,101269.70
2022-12-19T21:28:15.350Z,101269.06
2022-12-19T21:31:04.397Z,101268.63
2022-12-19T21:33:51.407Z,101266.79
2022-12-19T21:36:38.706Z,101273.15
2022-12-19T21:39:25.735Z,101279.61
2022-12-19T21:42:12.081Z,101278.67
2022-12-19T21:44:58.269Z,101282.09
2022-12-19T21:47:45.317Z,101286.92
2022-12-19T21:50:33.629Z,101290.34
2022-12-19T21:53:19.859Z,101290.70
2022-12-19T21:56:08.101Z,101297.54
2022-12-19T21:58:56.827Z,101289.61
2022-12-19T22:01:43.655Z,101282.45
2022-12-19T22:04:30.035Z,101282.30
2022-12-19T22:07:16.319Z,101277.82
2022-12-19T22:10:02.434Z,101270.60
2022-12-19T22:12:49.014Z,101264.63
2022-12-19T22:15:36.458Z,101260.63
2022-12-19T22:18:23.021Z,101260.93
2022-12-19T22:21:12.032Z,101257.70
2022-12-19T22:23:59.318Z,101256.65
2022-12-19T22:26:45.916Z,101250.55
2022-12-19T22:29:36.492Z,101251.48
2022-12-19T22:32:23.302Z,101250.84
2022-12-19T22:35:09.648Z,101251.05
2022-12-19T22:37:57.040Z,101247.43
2022-12-19T22:40:43.708Z,101255.48
2022-12-19T22:43:30.319Z,101258.94
2022-12-19T22:46:21.593Z,101256.10
2022-12-19T22:49:08.885Z,101251.23
2022-12-19T22:51:55.390Z,101248.34
2022-12-19T22:54:42.093Z,101251.49
2022-12-19T22:57:28.420Z,101247.88
2022-12-19T23:00:14.958Z,101248.81
2022-12-19T23:03:01.812Z,101237.51
2022-12-19T23:05:51.838Z,101228.09
2022-12-19T23:08:38.704Z,101226.52
2022-12-19T23:11:28.435Z,101217.92
2022-12-19T23:14:16.975Z,101207.83
2022-12-19T23:17:03.141Z,101214.36
2022-12-19T23:19:49.374Z,101212.38
2022-12-19T23:22:35.797Z,101221.71
2022-12-19T23:25:22.062Z,101219.67
2022-12-19T23:28:09.569Z,101207.45
2022-12-19T23:31:06.162Z,101207.96
2022-12-19T23:33:52.507Z,101212.00
2022-12-19T23:39:45.807Z,101207.37
2022-12-19T23:42:32.241Z,101193.17
2022-12-19T23:45:18.488Z,101182.88
2022-12-19T23:48:05.391Z,101183.27
2022-12-19T23:51:02.818Z,101186.95
2022-12-19T23:53:49.131Z,101191.11
2022-12-19T23:56:36.120Z,101182.15
2022-12-19T23:59:23.013Z,101174.28
